Stewart International Airport
KSWF : now visible

Airfield :











YOU CAN JOIN US ON...

 
LOGIN :

Register | Disclaimer

   EN    FR    IT 

 









Legend :    VFR   Marginal VFR   IFR   Intensive IFR   Very Intensive IFR
Visi :
Ceiling :
>= 8 km
>= 3000ft
5 to 8 km
1000 to 3000 ft
1500m to 5 km
500 to 1000 ft
800 to 1500m
200 to 500 ft
< 800m
< 200 ft
Symbols :   Thunderstorms  Fog  Heavy snow  Heavy precipitations  Wind > 20 kt






- Airport Elevation : 491 ft
- IATA code : SWF


KSWF - Stewart International

CURRENT METAR :
  • 252245Z VRB05KT 5SM BR BKN006 OVC024 05/05 A2976

EXPIRED METARs :
  • 252145Z 07010KT 5SM BR SCT005 BKN040 06/06 A2977
  • 252115Z 207015G25KT 5SM BR SCT005 BKN040 05/05 A2973 RMK PRESFR
  • 252045Z 28014KT 2SM -RA BR OVC005 05/05 A2985

TAF KSWF
Valid from the 26 at 00:00 until the 27 at 06:00 UTC


252325Z 2600/2706 VRB05KT 5SM BR BKN006 OVC024
FM260300 28009KT P6SM BKN050
FM261200 27010KT P6SM SCT050 BKN100
FM261800 28010G17KT P6SM SCT100 SCT250
FM262300 26005KT 6SM BR BKN070 AMD NOT SKED



MET'MAP, your aeronautical weather chart ! - Copyright ORBIFLY December 2007 - Disclaimer

ORBIFLY MET'MAP TEAM :

Programming & Development : Alexandra Zaïnal
Concept & original design : Baudouin d'Aumeries
Assistance for programming : Marc-Olivier Méhu
Technical & hardware support : Manuel Goepfert

Contact : metmap@orbifly.com




SOURCES & CREDITS :

   NOAA       Earth
Advisory